Saturday, January 20, 2018, 8:26 AM EST
Back to Local

KABE, Lehigh Valley International Airport

Location: Allentown, PA, United States Lat: 40.65
Local Time: 8:26 AM EST (13:26 GMT) Lon: -75.45
Time Zone: US/Eastern Elev: 393 ft

Show me the last for .
Show Decoded

2018-01-20 07:51 METAR KABE 201251Z 24008KT 10SM CLR 01/M06 A2990 RMK AO2 SLP129 T00061061 =
2018-01-20 06:51 METAR KABE 201151Z 23006KT 10SM CLR M02/M07 A2989 RMK AO2 SLP127 T10221072 10011
                 21033 56006 =
2018-01-20 05:51 METAR KABE 201051Z 22005KT 10SM CLR M02/M08 A2989 RMK AO2 SLP127 T10221078 =
2018-01-20 04:51 METAR KABE 200951Z 23007KT 10SM CLR M02/M08 A2989 RMK AO2 SLP126 T10221078 =
2018-01-20 03:51 METAR KABE 200851Z 25006KT 10SM CLR M02/M08 A2991 RMK AO2 SLP132 T10171078 58004
                 =
2018-01-20 01:51 METAR KABE 200651Z AUTO 23006KT 10SM CLR M03/M08 A2992 RMK AO2 SLP137 T10281083
                 =
2018-01-20 00:51 METAR KABE 200551Z AUTO 24007KT 10SM CLR M01/M08 A2992 RMK AO2 SLP137 T10111078
                 10000 21039 58018 =
2018-01-19 23:51 METAR KABE 200451Z 23006KT 10SM CLR M04/M08 A2994 RMK AO2 SLP144 T10391083
                 400331144 =
2018-01-19 22:51 METAR KABE 200351Z 23004KT 10SM CLR M02/M08 A2997 RMK AO2 SLP152 T10171078 =
2018-01-19 21:51 METAR KABE 200251Z 27004KT 10SM CLR M02/M08 A2998 RMK AO2 SLP156 T10171078 58001
                 =
2018-01-19 20:51 METAR KABE 200151Z 24005KT 10SM CLR M01/M08 A2998 RMK AO2 SLP156 T10111078 =
2018-01-19 19:51 METAR KABE 200051Z 23005KT 10SM CLR M01/M08 A2998 RMK AO2 SLP158 T10111083 =
2018-01-19 18:51 METAR KABE 192351Z 25004KT 10SM CLR 00/M08 A2998 RMK AO2 SLP158 60000 T00001078
                 10033 21028 50001 =
2018-01-19 17:51 METAR KABE 192251Z 23005KT 10SM CLR M01/M08 A2998 RMK AO2 SLP159 T10061078 =
2018-01-19 16:51 METAR KABE 192151Z 23008KT 10SM CLR 02/M07 A2998 RMK AO2 SLP156 T00221067 =
2018-01-19 15:51 METAR KABE 192051Z 24014KT 10SM CLR 03/M07 A2998 RMK AO2 SLP156 60000 T00331072
                 55011 $ =
2018-01-19 14:51 METAR KABE 191951Z AUTO 23013G19KT 10SM CLR 02/M07 A2997 RMK AO2 SLP155
                 T00221072 PWINO FZRANO $ =
2018-01-19 13:51 METAR KABE 191851Z AUTO 23010KT 10SM CLR 02/M07 A3000 RMK AO2 SLP163 P0000
                 T00221072 PWINO FZRANO $ =
2018-01-19 12:51 METAR KABE 191751Z AUTO 23009KT 10SM -RA CLR 02/M08 A3001 RMK AO2 SLP167 P0000
                 60000 I6000 T00221078 10022 21122 58026 =
2018-01-19 11:51 METAR KABE 191651Z 24009KT 10SM -RA CLR 01/M08 A3004 RMK AO2 UPB18E43RAB43
                 SLP177 P0000 T00111083 =
2018-01-19 10:51 METAR KABE 191551Z 23006KT 8SM CLR M02/M08 A3006 RMK AO2 SLP186 T10171083 =
2018-01-19 09:51 METAR KABE 191451Z 00000KT 6SM HZ CLR M07/M11 A3008 RMK AO2 SLP194 I3000
                 T10671111 53007 =
2018-01-19 08:51 METAR KABE 191351Z 00000KT 6SM BR CLR M09/M11 A3007 RMK AO2 SLP189 T10891111 =

Support USWX by starting your Amazon purchase here.